Time;durP1;ratioP1;P1;durP2;ratioP2;P2;SDS_P1;SDS_P2;PMS_P1;PMS_P2;Temp;Humidity;BMP_temperature;BMP_pressure;BME280_temperature;BME280_humidity;BME280_pressure;Samples;Min_cycle;Max_cycle;Signal;HPM_P1;HPM_P2
2022/01/17 00:01:17;;;;;;;33.85;14.65;;;;;;;-0.97;56.98;101235.58;1782997;78;25678;-64
2022/01/17 00:03:44;;;;;;;25.43;12.90;;;;;;;-0.94;56.97;101233.30;1789232;79;28201;-64
2022/01/17 00:06:13;;;;;;;33.58;15.18;;;;;;;-0.88;57.14;101240.16;1773996;80;25756;-64
2022/01/17 00:08:44;;;;;;;35.75;13.58;;;;;;;-0.84;57.03;101245.28;1777995;79;27467;-64
2022/01/17 00:11:12;;;;;;;28.50;13.72;;;;;;;-0.82;57.02;101246.55;1786311;78;25594;-63
2022/01/17 00:13:39;;;;;;;28.00;13.43;;;;;;;-0.76;56.86;101247.65;1788321;79;25843;-63
2022/01/17 00:16:12;;;;;;;33.45;15.38;;;;;;;-0.72;56.87;101238.72;1787263;79;27198;-64
2022/01/17 00:21:14;;;;;;;32.85;14.28;;;;;;;-0.65;56.72;101223.05;1782009;80;28422;-64
2022/01/17 00:23:44;;;;;;;32.08;14.23;;;;;;;-0.65;56.40;101217.77;1785680;79;25728;-64
2022/01/17 00:26:38;;;;;;;30.20;14.43;;;;;;;-0.66;56.41;101218.68;1714158;83;25814;-64
2022/01/17 00:29:07;;;;;;;34.10;14.38;;;;;;;-0.67;56.40;101218.27;1714612;81;28261;-63
2022/01/17 00:31:35;;;;;;;30.25;13.68;;;;;;;-0.68;56.44;101216.58;1776236;80;25495;-63
2022/01/17 00:34:06;;;;;;;28.67;13.80;;;;;;;-0.65;56.52;101216.45;1791744;79;26857;-63
2022/01/17 00:36:38;;;;;;;31.97;14.03;;;;;;;-0.62;56.59;101210.19;1799391;79;25769;-63
2022/01/17 00:39:08;;;;;;;31.07;13.88;;;;;;;-0.60;56.66;101210.16;1797512;79;25845;-63
2022/01/17 00:41:37;;;;;;;28.73;13.78;;;;;;;-0.59;56.67;101214.53;1792183;79;26138;-63
2022/01/17 00:44:06;;;;;;;35.60;15.05;;;;;;;-0.58;56.83;101217.10;1783758;79;27274;-63
2022/01/17 00:46:34;;;;;;;37.00;15.63;;;;;;;-0.58;56.83;101211.81;1781453;79;27444;-63
2022/01/17 00:49:00;;;;;;;31.15;14.15;;;;;;;-0.59;56.90;101208.77;1780988;79;25762;-63
2022/01/17 00:51:27;;;;;;;35.25;15.20;;;;;;;-0.59;57.06;101203.48;1783717;79;25643;-63
2022/01/17 00:53:54;;;;;;;27.93;13.78;;;;;;;-0.62;57.03;101210.19;1776274;79;26163;-63
2022/01/17 00:56:23;;;;;;;33.20;13.08;;;;;;;-0.64;57.11;101202.33;1789011;79;27331;-63
2022/01/17 00:58:50;;;;;;;29.52;14.43;;;;;;;-0.64;57.27;101201.00;1790318;80;27509;-63
2022/01/17 01:01:19;;;;;;;27.70;14.20;;;;;;;-0.64;57.16;101191.75;1780970;80;25707;-63
2022/01/17 01:03:46;;;;;;;37.08;13.83;;;;;;;-0.62;57.35;101193.02;1798135;79;26407;-62
2022/01/17 01:06:13;;;;;;;34.53;15.45;;;;;;;-0.62;57.28;101185.08;1803132;79;26062;-63
2022/01/17 01:08:40;;;;;;;30.30;14.45;;;;;;;-0.63;57.23;101179.42;1788889;79;25759;-63
2022/01/17 01:11:09;;;;;;;36.68;15.15;;;;;;;-0.68;57.49;101180.91;1804624;78;29673;-64
2022/01/17 01:13:40;;;;;;;33.40;14.80;;;;;;;-0.75;57.36;101166.63;1799313;78;25734;-64
2022/01/17 01:16:22;;;;;;;35.03;15.15;;;;;;;-0.79;57.39;101174.66;1797941;79;25774;-63
2022/01/17 01:19:05;;;;;;;33.55;16.23;;;;;;;-0.82;57.69;101165.53;1796882;79;26152;-63
2022/01/17 01:29:28;;;;;;;42.48;15.32;;;;;;;-0.85;57.64;101127.33;1776593;79;25780;-63
2022/01/17 01:32:08;;;;;;;33.48;16.27;;;;;;;-0.86;57.56;101123.42;1773160;79;26102;-63
2022/01/17 01:34:34;;;;;;;32.40;13.48;;;;;;;-0.89;57.65;101120.41;1789628;80;26325;-63
2022/01/17 01:36:56;;;;;;;28.80;14.45;;;;;;;-0.90;57.81;101121.80;1788994;79;27484;-63
2022/01/17 01:39:24;;;;;;;37.83;14.65;;;;;;;-0.93;57.95;101123.22;1774981;79;25720;-63
2022/01/17 01:41:52;;;;;;;31.52;14.15;;;;;;;-1.02;57.79;101129.69;1792910;79;25807;-63
2022/01/17 01:44:23;;;;;;;27.15;13.15;;;;;;;-1.10;58.02;101131.27;1788150;79;26148;-63
2022/01/17 01:46:55;;;;;;;27.60;13.40;;;;;;;-1.18;57.99;101130.23;1775487;79;25732;-63
2022/01/17 01:49:24;;;;;;;27.22;13.08;;;;;;;-1.20;58.11;101128.09;1769025;80;27635;-63
2022/01/17 01:51:52;;;;;;;36.95;14.15;;;;;;;-1.21;58.06;101124.19;1760438;79;26084;-64
2022/01/17 01:54:19;;;;;;;26.87;13.18;;;;;;;-1.25;58.27;101123.41;1770893;79;25744;-63
2022/01/17 01:56:49;;;;;;;29.25;14.25;;;;;;;-1.29;58.64;101110.77;1769656;81;26070;-64
2022/01/17 01:59:22;;;;;;;33.28;14.58;;;;;;;-1.32;58.59;101109.57;1772065;79;25764;-64
2022/01/17 02:01:50;;;;;;;26.87;13.78;;;;;;;-1.32;58.71;101108.69;1769753;81;27465;-64
2022/01/17 02:04:17;;;;;;;31.95;14.10;;;;;;;-1.33;58.60;101101.25;1771584;79;25738;-63
2022/01/17 02:06:45;;;;;;;30.45;13.50;;;;;;;-1.34;58.83;101104.80;1776608;79;25807;-64
2022/01/17 02:09:13;;;;;;;30.60;13.35;;;;;;;-1.36;58.57;101101.34;1784976;79;26409;-64
2022/01/17 02:11:40;;;;;;;30.35;13.98;;;;;;;-1.36;58.69;101093.42;1785395;80;27304;-64
2022/01/17 02:14:07;;;;;;;31.85;14.18;;;;;;;-1.40;58.42;101090.49;1785396;80;27477;-64
2022/01/17 02:16:37;;;;;;;28.12;14.38;;;;;;;-1.46;58.49;101089.36;1785565;80;25924;-64
2022/01/17 02:19:03;;;;;;;29.55;14.07;;;;;;;-1.51;58.45;101089.98;1779761;79;25688;-64
2022/01/17 02:21:34;;;;;;;28.85;13.68;;;;;;;-1.54;58.65;101080.84;1783281;79;26112;-64
2022/01/17 02:24:05;;;;;;;32.20;13.65;;;;;;;-1.57;58.74;101091.89;1791610;79;26494;-64
2022/01/17 02:26:32;;;;;;;31.95;13.78;;;;;;;-1.60;58.95;101090.70;1802741;79;27459;-65
2022/01/17 02:28:59;;;;;;;27.98;14.47;;;;;;;-1.64;58.92;101088.20;1795232;78;25769;-64
2022/01/17 02:31:28;;;;;;;29.02;13.55;;;;;;;-1.63;59.01;101092.58;1761032;80;25622;-64
2022/01/17 02:33:55;;;;;;;30.08;13.35;;;;;;;-1.66;58.94;101088.23;1768317;79;26713;-64
2022/01/17 02:36:23;;;;;;;29.55;13.80;;;;;;;-1.69;58.90;101092.31;1785436;79;25683;-64
2022/01/17 02:38:50;;;;;;;32.23;16.07;;;;;;;-1.69;59.00;101087.03;1780947;79;27429;-64
2022/01/17 02:41:18;;;;;;;32.15;15.53;;;;;;;-1.65;59.31;101084.69;1779781;79;25450;-63
2022/01/17 02:43:47;;;;;;;27.95;14.13;;;;;;;-1.58;59.40;101081.40;1802867;79;25737;-64
2022/01/17 02:48:45;;;;;;;26.73;15.10;;;;;;;-1.45;59.26;101072.61;1788359;78;25858;-63
2022/01/17 02:51:12;;;;;;;32.83;16.50;;;;;;;-1.44;59.16;101079.18;1785467;80;27525;-64
2022/01/17 02:53:40;;;;;;;28.20;13.10;;;;;;;-1.42;59.13;101077.80;1786429;79;25797;-64
2022/01/17 02:56:10;;;;;;;30.75;14.00;;;;;;;-1.40;59.29;101075.09;1785521;80;25479;-64
2022/01/17 02:58:40;;;;;;;30.48;13.20;;;;;;;-1.41;59.37;101071.61;1784981;80;26083;-64
2022/01/17 03:01:15;;;;;;;31.05;13.98;;;;;;;-1.36;59.49;101067.03;1780616;79;26229;-64
2022/01/17 03:03:43;;;;;;;30.72;14.40;;;;;;;-1.32;59.45;101071.30;1785112;79;28578;-64
2022/01/17 03:06:11;;;;;;;29.50;13.80;;;;;;;-1.30;59.43;101073.41;1785528;80;25667;-64
2022/01/17 03:08:41;;;;;;;30.62;14.50;;;;;;;-1.36;58.90;101076.27;1785453;80;25759;-64
2022/01/17 03:11:12;;;;;;;32.13;14.30;;;;;;;-1.41;59.24;101079.53;1785660;79;25703;-64
2022/01/17 03:13:40;;;;;;;33.48;13.70;;;;;;;-1.40;59.47;101077.73;1785803;80;25748;-64
2022/01/17 03:16:13;;;;;;;28.55;13.20;;;;;;;-1.34;59.59;101086.31;1785513;79;27481;-64
2022/01/17 03:18:45;;;;;;;35.33;13.72;;;;;;;-1.31;59.64;101065.55;1780438;80;25486;-63
2022/01/17 03:21:16;;;;;;;35.03;14.73;;;;;;;-1.25;59.47;101069.29;1775293;80;25779;-64
2022/01/17 03:23:45;;;;;;;31.52;14.03;;;;;;;-1.19;59.48;101064.26;1789670;79;26072;-64
2022/01/17 03:26:13;;;;;;;27.85;13.38;;;;;;;-1.14;59.46;101071.58;1802929;79;25749;-64
2022/01/17 03:28:40;;;;;;;29.18;13.30;;;;;;;-1.13;59.57;101066.23;1801536;79;27450;-63
2022/01/17 03:31:09;;;;;;;27.82;14.95;;;;;;;-1.11;59.51;101059.56;1782643;80;25683;-64
2022/01/17 03:33:40;;;;;;;30.88;15.18;;;;;;;-1.11;59.38;101048.56;1785371;79;25651;-63
2022/01/17 03:36:07;;;;;;;35.43;14.85;;;;;;;-1.10;59.58;101044.13;1785471;79;26061;-63
2022/01/17 03:38:35;;;;;;;25.95;14.05;;;;;;;-1.07;59.61;101049.75;1785366;80;25977;-64
2022/01/17 03:41:05;;;;;;;30.92;14.43;;;;;;;-1.08;59.58;101042.30;1784281;78;28458;-64
2022/01/17 03:43:32;;;;;;;26.15;13.40;;;;;;;-1.07;59.63;101042.71;1802643;79;25760;-64
2022/01/17 03:46:00;;;;;;;32.05;15.00;;;;;;;-1.09;59.62;101048.97;1791839;78;25724;-64
2022/01/17 03:48:31;;;;;;;28.23;13.95;;;;;;;-1.12;59.67;101042.88;1780420;79;26749;-64
2022/01/17 03:51:00;;;;;;;31.05;14.85;;;;;;;-1.13;59.62;101038.98;1780832;79;25728;-64
2022/01/17 03:53:28;;;;;;;25.20;13.43;;;;;;;-1.16;59.73;101029.84;1775782;80;27465;-64
2022/01/17 03:55:56;;;;;;;26.95;13.15;;;;;;;-1.15;59.72;101027.13;1771899;80;25807;-64
2022/01/17 03:58:26;;;;;;;30.08;13.80;;;;;;;-1.14;59.77;101022.73;1774805;80;25782;-63
2022/01/17 04:00:56;;;;;;;32.60;14.80;;;;;;;-1.14;59.63;101027.55;1782736;79;26115;-64
2022/01/17 04:03:24;;;;;;;29.02;14.35;;;;;;;-1.15;59.69;101024.97;1786224;79;25729;-64
2022/01/17 04:05:51;;;;;;;28.23;14.60;;;;;;;-1.15;59.79;101021.85;1786050;80;28162;-64
2022/01/17 04:08:18;;;;;;;30.97;13.68;;;;;;;-1.15;59.91;101016.57;1785825;80;25751;-64
2022/01/17 04:10:49;;;;;;;32.05;15.65;;;;;;;-1.16;59.87;101010.03;1773695;80;25744;-64
2022/01/17 04:13:17;;;;;;;37.80;18.65;;;;;;;-1.18;59.76;101004.83;1774369;80;26079;-64
2022/01/17 04:15:44;;;;;;;37.73;18.82;;;;;;;-1.20;59.70;101009.73;1769953;79;25766;-64
2022/01/17 04:18:12;;;;;;;34.98;17.75;;;;;;;-1.26;59.63;101008.20;1784359;80;28112;-64
2022/01/17 04:20:41;;;;;;;32.33;16.40;;;;;;;-1.30;59.82;100999.97;1774283;80;25810;-64
2022/01/17 04:23:11;;;;;;;36.95;17.85;;;;;;;-1.32;60.05;101001.80;1774620;80;25728;-64
2022/01/17 04:25:41;;;;;;;32.80;15.88;;;;;;;-1.32;60.14;100998.72;1788232;78;26094;-64
2022/01/17 04:28:10;;;;;;;29.90;16.07;;;;;;;-1.31;60.37;100999.13;1803347;79;25761;-63
2022/01/17 04:30:39;;;;;;;36.08;16.48;;;;;;;-1.28;60.38;100996.83;1776358;79;27438;-64
2022/01/17 04:33:07;;;;;;;39.67;18.32;;;;;;;-1.31;60.56;100992.96;1775456;80;25794;-64
2022/01/17 04:35:36;;;;;;;39.18;17.77;;;;;;;-1.35;60.29;100982.98;1773113;80;25778;-64
2022/01/17 04:38:15;;;;;;;34.75;16.80;;;;;;;-1.37;60.30;100995.36;1774752;79;26047;-64
2022/01/17 04:40:46;;;;;;;31.45;16.62;;;;;;;-1.39;60.51;100993.70;1773184;79;25481;-64
2022/01/17 04:43:21;;;;;;;30.60;16.45;;;;;;;-1.44;60.68;100990.78;1755194;81;27529;-64
2022/01/17 04:45:47;;;;;;;39.00;19.27;;;;;;;-1.44;60.68;100989.90;1773908;80;25747;-64
2022/01/17 04:48:14;;;;;;;38.88;19.62;;;;;;;-1.45;60.72;100995.65;1774725;80;25823;-64
2022/01/17 04:50:43;;;;;;;44.65;20.62;;;;;;;-1.47;60.97;100995.27;1774466;80;26068;-64
2022/01/17 04:53:11;;;;;;;46.50;20.32;;;;;;;-1.47;60.92;100989.99;1703637;83;25784;-64
2022/01/17 04:55:38;;;;;;;38.75;18.48;;;;;;;-1.51;60.78;100981.80;1694749;84;27496;-64
2022/01/17 04:58:07;;;;;;;34.35;17.23;;;;;;;-1.52;60.90;100984.03;1674244;83;25885;-63
2022/01/17 05:00:36;;;;;;;40.28;17.85;;;;;;;-1.55;60.93;100998.64;1710751;82;25809;-64
2022/01/17 05:03:04;;;;;;;30.27;15.25;;;;;;;-1.59;61.19;101000.52;1710098;82;26122;-63
2022/01/17 05:05:31;;;;;;;30.25;17.00;;;;;;;-1.68;61.09;101000.83;1710928;82;25704;-64
2022/01/17 05:07:58;;;;;;;32.38;15.78;;;;;;;-1.73;61.29;100995.71;1711074;83;27424;-63
2022/01/17 05:10:27;;;;;;;36.90;16.07;;;;;;;-1.76;61.17;100995.84;1685837;83;25683;-63
2022/01/17 05:12:54;;;;;;;38.00;16.77;;;;;;;-1.77;61.12;101004.66;1684398;82;25824;-63
2022/01/17 05:16:10;;;;;;;37.05;16.30;;;;;;;-1.85;61.11;100993.51;1685035;83;26114;-63
2022/01/17 05:18:01;;;;;;;37.58;17.82;;;;;;;-1.91;61.02;100994.56;1684665;83;25850;-63
2022/01/17 05:20:28;;;;;;;40.55;17.32;;;;;;;-1.95;61.25;100995.56;1684668;85;27554;-63
2022/01/17 05:22:56;;;;;;;40.12;17.95;;;;;;;-1.99;61.18;100996.13;1685022;84;25570;-63
2022/01/17 05:25:25;;;;;;;36.25;17.75;;;;;;;-2.02;61.18;100996.69;1738670;81;25726;-63
2022/01/17 05:27:52;;;;;;;41.45;17.25;;;;;;;-2.07;61.07;101005.63;1732131;82;26102;-63
2022/01/17 05:30:23;;;;;;;41.28;19.92;;;;;;;-2.12;61.41;101006.68;1720454;82;25739;-63
2022/01/17 05:32:52;;;;;;;43.65;18.30;;;;;;;-2.16;61.47;101004.59;1730875;81;27529;-63
2022/01/17 05:35:21;;;;;;;32.78;16.70;;;;;;;-2.21;61.22;100995.52;1733470;82;25742;-63
2022/01/17 05:37:48;;;;;;;32.78;17.00;;;;;;;-2.24;61.48;100996.08;1734177;82;25773;-63
2022/01/17 05:40:16;;;;;;;39.10;19.45;;;;;;;-2.27;61.72;101002.28;1730196;82;26117;-63
2022/01/17 05:42:45;;;;;;;38.23;19.10;;;;;;;-2.32;61.57;100994.98;1736424;81;25790;-63
2022/01/17 05:45:14;;;;;;;34.10;16.23;;;;;;;-2.32;61.51;100995.42;1717719;82;28236;-63
2022/01/17 05:47:41;;;;;;;39.58;18.95;;;;;;;-2.35;61.57;100992.44;1751815;81;25694;-63
2022/01/17 05:50:10;;;;;;;37.73;18.12;;;;;;;-2.38;61.56;101003.09;1751950;80;25702;-63
2022/01/17 05:52:38;;;;;;;37.35;17.37;;;;;;;-2.37;61.99;100999.52;1750538;81;26813;-62
2022/01/17 05:55:11;;;;;;;35.43;17.05;;;;;;;-2.37;62.04;100988.98;1788677;78;25444;-63
2022/01/17 05:57:38;;;;;;;38.38;18.82;;;;;;;-2.37;62.20;100993.81;1793910;80;27466;-63
2022/01/17 06:00:09;;;;;;;32.20;16.45;;;;;;;-2.37;62.18;100996.89;1793982;79;25757;-62
2022/01/17 06:02:39;;;;;;;36.28;17.20;;;;;;;-2.35;62.40;100996.39;1794019;79;25794;-62
2022/01/17 06:05:09;;;;;;;31.87;15.10;;;;;;;-2.33;62.14;100998.53;1789670;79;26099;-63
2022/01/17 06:07:36;;;;;;;39.40;16.80;;;;;;;-2.34;61.99;101000.75;1793764;80;25724;-63
2022/01/17 06:10:07;;;;;;;30.75;15.38;;;;;;;-2.38;61.79;100985.50;1796710;79;27445;-63
2022/01/17 06:12:36;;;;;;;34.95;16.02;;;;;;;-2.38;61.91;100980.23;1798675;79;25776;-63
2022/01/17 06:15:05;;;;;;;34.50;15.90;;;;;;;-2.35;61.80;100980.58;1797614;79;25677;-63
2022/01/17 06:17:34;;;;;;;39.23;16.05;;;;;;;-2.34;61.79;100974.88;1798681;79;26819;-63
2022/01/17 06:20:01;;;;;;;30.82;15.63;;;;;;;-2.33;61.89;100979.23;1787775;79;25879;-63
2022/01/17 06:22:28;;;;;;;34.00;17.77;;;;;;;-2.30;62.14;100976.05;1785429;80;27458;-63
2022/01/17 06:24:57;;;;;;;38.60;17.95;;;;;;;-2.26;61.98;100972.38;1806020;79;26346;-63
2022/01/17 06:27:23;;;;;;;33.83;16.30;;;;;;;-2.21;62.10;100965.21;1803541;78;25757;-62
2022/01/17 06:29:52;;;;;;;35.05;16.65;;;;;;;-2.19;62.23;100958.56;1793459;80;26138;-62
2022/01/17 06:32:21;;;;;;;42.53;16.17;;;;;;;-2.18;62.21;100960.29;1794923;78;25821;-62
2022/01/17 06:34:50;;;;;;;30.50;16.32;;;;;;;-2.18;62.16;100947.11;1790163;79;29713;-62
2022/01/17 06:37:17;;;;;;;36.73;18.80;;;;;;;-2.20;61.97;100951.56;1785881;78;25716;-62
2022/01/17 06:39:43;;;;;;;39.03;16.60;;;;;;;-2.15;62.11;100933.81;1783740;80;25720;-62
2022/01/17 06:42:11;;;;;;;33.08;16.35;;;;;;;-2.12;62.01;100934.19;1784041;79;26256;-62
2022/01/17 06:44:38;;;;;;;40.17;16.95;;;;;;;-2.10;61.96;100930.58;1785418;80;25741;-62
2022/01/17 06:47:05;;;;;;;48.38;18.42;;;;;;;-2.10;62.06;100934.53;1793266;79;27473;-62
2022/01/17 06:49:32;;;;;;;36.00;17.70;;;;;;;-2.07;62.17;100933.56;1794293;79;25730;-61
2022/01/17 06:52:00;;;;;;;37.15;18.30;;;;;;;-2.09;62.12;100925.72;1789927;79;25697;-62
2022/01/17 06:54:27;;;;;;;38.08;19.00;;;;;;;-2.14;62.10;100938.64;1785246;79;26116;-63
2022/01/17 06:56:53;;;;;;;58.68;29.45;;;;;;;-2.10;62.48;100943.77;1785560;80;25774;-62
2022/01/17 06:59:20;;;;;;;51.70;25.40;;;;;;;-2.03;62.48;100939.59;1785575;79;28188;-63
2022/01/17 07:01:47;;;;;;;51.35;23.40;;;;;;;-2.04;62.18;100924.25;1786908;79;25756;-62
2022/01/17 07:04:14;;;;;;;55.03;25.17;;;;;;;-2.03;62.17;100901.37;1798687;79;25516;-63
2022/01/17 07:06:43;;;;;;;47.53;23.90;;;;;;;-2.01;62.25;100890.32;1778741;79;26519;-62
2022/01/17 07:09:12;;;;;;;52.10;22.93;;;;;;;-1.95;62.08;100888.34;1709944;83;25739;-62
2022/01/17 07:11:39;;;;;;;52.15;25.23;;;;;;;-1.90;62.27;100870.57;1775216;80;27475;-61
2022/01/17 07:14:11;;;;;;;49.13;23.77;;;;;;;-1.80;62.34;100869.81;1775479;79;25720;-61
2022/01/17 07:16:40;;;;;;;44.05;22.00;;;;;;;-1.76;62.22;100863.49;1774031;80;25742;-62
2022/01/17 07:19:08;;;;;;;44.38;20.92;;;;;;;-1.78;61.97;100851.28;1774624;80;26180;-62
2022/01/17 07:21:37;;;;;;;39.92;18.52;;;;;;;-1.77;62.22;100853.85;1774571;80;25781;-64
2022/01/17 07:24:05;;;;;;;45.20;19.92;;;;;;;-1.70;62.24;100868.16;1775626;79;27461;-62
2022/01/17 07:26:32;;;;;;;38.45;18.27;;;;;;;-1.66;62.00;100889.54;1765174;80;25795;-62
2022/01/17 07:29:00;;;;;;;42.10;21.85;;;;;;;-1.59;62.08;100946.00;1777063;80;25712;-64
2022/01/17 07:31:27;;;;;;;42.43;19.50;;;;;;;-1.46;62.03;100975.45;1802320;79;25510;-62
2022/01/17 07:33:54;;;;;;;39.90;19.82;;;;;;;-1.27;62.19;100961.59;1790452;79;25688;-64
2022/01/17 07:36:21;;;;;;;37.33;16.97;;;;;;;-1.07;62.22;100963.50;1786302;79;27528;-61
2022/01/17 07:38:49;;;;;;;50.73;20.90;;;;;;;-0.86;62.17;100962.30;1785900;79;27216;-61
2022/01/17 07:41:17;;;;;;;42.78;20.65;;;;;;;-0.71;62.04;100940.58;1792811;79;25770;-63
2022/01/17 07:43:44;;;;;;;44.35;21.07;;;;;;;-0.58;61.94;100919.81;1807438;78;25944;-62
2022/01/17 07:46:23;;;;;;;44.35;21.12;;;;;;;-0.43;61.78;100900.28;1798831;79;25747;-62
2022/01/17 07:51:32;;;;;;;60.35;27.22;;;;;;;-0.16;61.63;100861.28;1798612;79;25699;-61
2022/01/17 07:54:04;;;;;;;71.72;27.82;;;;;;;-0.06;61.09;100845.42;1797907;78;25722;-62
2022/01/17 07:56:33;;;;;;;65.80;26.68;;;;;;;0.06;60.83;100844.47;1800749;79;26985;-62
2022/01/17 07:59:01;;;;;;;61.60;27.85;;;;;;;0.16;60.80;100849.77;1800958;79;25733;-63
2022/01/17 08:01:28;;;;;;;58.30;26.82;;;;;;;0.26;60.67;100856.38;1790914;78;27460;-64
2022/01/17 08:03:55;;;;;;;56.18;25.52;;;;;;;0.34;60.53;100869.28;1785871;80;25673;-62
2022/01/17 08:06:22;;;;;;;64.95;30.77;;;;;;;0.45;60.44;100869.62;1795348;79;25639;-65
2022/01/17 08:08:49;;;;;;;86.90;29.92;;;;;;;0.53;60.33;100901.06;1795790;79;26482;-63
2022/01/17 08:11:16;;;;;;;72.22;31.07;;;;;;;0.62;60.33;100926.28;1812988;79;25831;-62
2022/01/17 08:13:44;;;;;;;64.70;27.95;;;;;;;0.72;60.12;100939.48;1809450;79;26873;-62
2022/01/17 08:16:15;;;;;;;66.35;29.32;;;;;;;0.83;60.03;100949.62;1809476;79;25677;-62
2022/01/17 08:18:43;;;;;;;59.75;27.02;;;;;;;0.99;59.76;100929.89;1779693;79;25706;-61
2022/01/17 08:21:11;;;;;;;63.87;28.20;;;;;;;1.14;59.06;100897.00;1792909;78;26106;-61
2022/01/17 08:23:39;;;;;;;83.72;29.07;;;;;;;1.30;58.85;100885.22;1802540;79;26588;-62
2022/01/17 08:26:10;;;;;;;74.92;26.12;;;;;;;1.43;58.50;100870.42;1812035;79;27889;-63
2022/01/17 08:28:38;;;;;;;59.63;26.00;;;;;;;1.59;58.25;100847.99;1810940;79;25745;-63
2022/01/17 08:31:05;;;;;;;50.48;24.72;;;;;;;1.87;57.82;100834.18;1812211;79;25732;-63
2022/01/17 08:33:35;;;;;;;65.37;24.52;;;;;;;2.23;56.46;100832.36;1812218;77;26100;-63
2022/01/17 08:36:03;;;;;;;61.28;23.30;;;;;;;2.50;55.31;100832.67;1812814;78;25633;-63
2022/01/17 08:38:32;;;;;;;66.07;23.38;;;;;;;2.61;55.57;100813.98;1799231;79;27513;-62
2022/01/17 08:40:59;;;;;;;52.13;20.92;;;;;;;2.68;53.96;100803.39;1805432;79;25745;-64
2022/01/17 08:43:26;;;;;;;50.67;21.35;;;;;;;2.67;52.60;100797.69;1812793;78;25765;-63
2022/01/17 08:45:53;;;;;;;59.58;22.82;;;;;;;2.61;51.12;100788.75;1802526;79;26215;-62
2022/01/17 08:48:20;;;;;;;66.47;24.77;;;;;;;2.57;51.34;100780.09;1791222;80;25425;-64
2022/01/17 08:50:48;;;;;;;76.65;24.50;;;;;;;2.57;51.45;100775.23;1790729;79;26980;-65
2022/01/17 08:53:17;;;;;;;62.88;24.43;;;;;;;2.62;51.61;100758.11;1786311;80;25805;-64
2022/01/17 08:55:48;;;;;;;65.45;23.75;;;;;;;2.62;51.40;100749.30;1781318;79;25785;-63
2022/01/17 08:58:16;;;;;;;46.55;21.33;;;;;;;2.58;51.58;100768.53;1782327;79;26130;-63
2022/01/17 09:00:45;;;;;;;68.67;27.13;;;;;;;2.56;51.56;100778.83;1784937;80;25664;-62
2022/01/17 09:03:13;;;;;;;65.75;26.02;;;;;;;2.56;51.71;100745.17;1784180;79;28125;-65
2022/01/17 09:05:40;;;;;;;63.75;25.32;;;;;;;2.58;52.01;100763.22;1780378;79;26319;-64
2022/01/17 09:08:08;;;;;;;76.90;28.12;;;;;;;2.60;51.83;100745.86;1785407;79;25690;-62
2022/01/17 09:10:38;;;;;;;55.98;25.35;;;;;;;2.63;51.79;100737.73;1785495;80;26752;-65
2022/01/17 09:13:07;;;;;;;69.77;28.23;;;;;;;2.69;51.87;100732.55;1782015;80;25651;-63
2022/01/17 09:15:36;;;;;;;68.10;27.52;;;;;;;2.77;51.96;100724.52;1785650;79;28117;-63
2022/01/17 09:18:05;;;;;;;71.70;28.52;;;;;;;2.89;52.06;100707.02;1785396;80;25751;-62
2022/01/17 09:20:34;;;;;;;69.60;26.05;;;;;;;3.02;51.99;100692.54;1785771;80;26417;-64
2022/01/17 09:23:07;;;;;;;67.45;26.62;;;;;;;3.17;51.98;100701.42;1780425;80;26088;-65
2022/01/17 09:25:38;;;;;;;73.60;26.62;;;;;;;3.31;51.72;100686.47;1800655;78;25738;-65
2022/01/17 09:28:05;;;;;;;86.82;28.55;;;;;;;3.39;51.66;100688.20;1783320;79;27434;-62
2022/01/17 09:30:32;;;;;;;66.53;24.72;;;;;;;3.44;50.29;100678.13;1784991;79;25743;-64
2022/01/17 09:32:59;;;;;;;68.30;28.02;;;;;;;3.41;50.07;100683.62;1780502;80;25743;-65
2022/01/17 09:35:32;;;;;;;76.12;27.10;;;;;;;3.41;47.97;100667.20;1780164;79;27241;-64
2022/01/17 09:38:00;;;;;;;78.20;27.10;;;;;;;3.37;48.38;100664.33;1780516;79;25822;-63
2022/01/17 09:40:28;;;;;;;85.07;26.73;;;;;;;3.37;47.98;100666.99;1785213;79;27418;-63
2022/01/17 09:42:58;;;;;;;77.60;27.27;;;;;;;3.39;48.13;100666.44;1784609;79;25694;-63
2022/01/17 09:45:24;;;;;;;66.77;27.10;;;;;;;3.44;47.86;100660.84;1779745;79;25731;-63
2022/01/17 09:47:53;;;;;;;87.30;30.10;;;;;;;3.46;48.17;100650.97;1779504;80;25758;-63
2022/01/17 09:50:34;;;;;;;100.60;35.55;;;;;;;3.51;48.35;100640.05;1780121;79;25687;-63
2022/01/17 09:52:54;;;;;;;86.35;29.80;;;;;;;3.59;48.45;100631.97;1781509;80;27404;-63
2022/01/17 09:55:25;;;;;;;67.10;24.65;;;;;;;3.71;48.36;100630.84;1768645;80;25803;-63
2022/01/17 09:58:00;;;;;;;84.35;27.73;;;;;;;3.86;48.26;100612.56;1747165;81;25565;-63
2022/01/17 10:00:31;;;;;;;73.10;26.27;;;;;;;4.06;47.93;100608.66;1751019;81;26004;-65
2022/01/17 10:03:06;;;;;;;79.45;25.00;;;;;;;4.23;48.36;100610.22;1744777;81;25748;-62
2022/01/17 10:05:35;;;;;;;64.05;21.10;;;;;;;4.38;47.64;100606.20;1744079;81;27507;-63
2022/01/17 10:08:07;;;;;;;61.85;21.65;;;;;;;4.52;46.93;100594.15;1744997;81;25795;-65
2022/01/17 10:10:54;;;;;;;78.57;26.27;;;;;;;4.67;47.18;100581.62;1743706;81;25909;-64
2022/01/17 10:13:24;;;;;;;45.58;16.65;;;;;;;4.79;46.41;100573.28;1755848;79;26096;-64
2022/01/17 10:16:20;;;;;;;38.67;15.95;;;;;;;4.86;44.76;100557.73;1758717;80;25751;-64
2022/01/17 10:19:02;;;;;;;35.68;15.63;;;;;;;4.91;44.47;100553.42;1758828;80;27447;-66
2022/01/17 10:21:51;;;;;;;41.00;13.80;;;;;;;4.94;44.06;100548.72;1758284;81;25632;-65
2022/01/17 10:35:22;;;;;;;21.57;9.40;;;;;;;5.42;43.40;100521.89;1743110;81;25763;-62
2022/01/17 10:38:11;;;;;;;30.62;10.75;;;;;;;5.48;43.86;100505.44;1745642;80;25806;-62
2022/01/17 10:40:46;;;;;;;21.52;9.50;;;;;;;5.47;43.84;100507.23;1745122;81;26204;-65
2022/01/17 10:43:27;;;;;;;22.55;9.95;;;;;;;5.49;43.28;100500.48;1741805;80;25741;-62
2022/01/17 10:45:57;;;;;;;17.05;8.58;;;;;;;5.54;43.50;100486.80;1735643;81;27499;-65
2022/01/17 10:48:34;;;;;;;22.37;8.68;;;;;;;5.62;43.19;100483.94;1738010;81;25785;-63
2022/01/17 10:51:06;;;;;;;20.35;7.95;;;;;;;5.78;44.02;100475.67;1733712;80;47331;-62
2022/01/17 10:53:35;;;;;;;20.70;8.38;;;;;;;5.93;43.90;100475.03;1760878;80;26097;-63
2022/01/17 10:56:07;;;;;;;17.27;8.08;;;;;;;5.98;43.33;100469.81;1751145;80;25728;-63
2022/01/17 10:58:33;;;;;;;23.02;8.35;;;;;;;6.02;43.82;100455.31;1781953;79;27467;-66
2022/01/17 11:01:16;;;;;;;17.52;7.80;;;;;;;6.05;43.36;100452.42;1784155;80;25694;-65
2022/01/17 11:03:47;;;;;;;19.73;8.18;;;;;;;6.07;42.89;100446.47;1784175;79;25756;-62
2022/01/17 11:06:21;;;;;;;19.25;7.55;;;;;;;6.10;42.35;100430.22;1755286;81;26154;-65
2022/01/17 11:08:51;;;;;;;19.82;7.72;;;;;;;6.10;42.51;100418.20;1784945;78;26722;-63
2022/01/17 11:11:21;;;;;;;17.77;7.97;;;;;;;6.11;43.31;100414.07;1784122;78;27795;-65
2022/01/17 11:13:49;;;;;;;26.40;9.05;;;;;;;6.15;43.50;100405.34;1785034;80;26217;-64
2022/01/17 11:16:21;;;;;;;15.63;7.50;;;;;;;6.19;43.71;100403.28;1784984;79;25770;-64
2022/01/17 11:19:00;;;;;;;18.45;7.20;;;;;;;6.26;43.19;100388.02;1784976;79;26591;-63
2022/01/17 11:21:24;;;;;;;19.92;6.95;;;;;;;6.38;43.48;100388.05;1791464;79;27293;-62
2022/01/17 11:23:52;;;;;;;17.95;7.15;;;;;;;6.48;42.90;100389.52;1788397;78;27472;-63
2022/01/17 11:26:19;;;;;;;15.03;5.80;;;;;;;6.61;43.35;100386.73;1802941;79;25913;-63
2022/01/17 11:28:49;;;;;;;19.77;7.97;;;;;;;6.70;42.76;100384.20;1802680;78;26432;-62
2022/01/17 11:31:16;;;;;;;19.32;7.65;;;;;;;6.81;43.23;100380.67;1802493;78;26132;-63
2022/01/17 11:33:46;;;;;;;14.23;6.20;;;;;;;6.94;43.29;100381.05;1785271;79;25805;-63
2022/01/17 11:36:17;;;;;;;13.20;5.37;;;;;;;7.09;42.25;100377.61;1780272;78;27379;-63
2022/01/17 11:38:49;;;;;;;17.55;5.20;;;;;;;7.18;41.69;100376.87;1783073;78;26548;-64
2022/01/17 11:41:34;;;;;;;18.73;4.80;;;;;;;7.18;40.96;100367.50;1786802;79;25768;-64
2022/01/17 11:44:07;;;;;;;17.27;5.35;;;;;;;7.23;41.17;100360.45;1784331;80;26114;-64
2022/01/17 11:46:49;;;;;;;24.25;4.92;;;;;;;7.25;40.20;100351.81;1770674;80;25806;-64
2022/01/17 11:49:35;;;;;;;16.85;5.53;;;;;;;7.25;41.07;100337.97;1782015;80;27465;-63